Time;durP1;ratioP1;P1;durP2;ratioP2;P2;SDS_P1;SDS_P2;PMS_P1;PMS_P2;Temp;Humidity;BMP_temperature;BMP_pressure;BME280_temperature;BME280_humidity;BME280_pressure;Samples;Min_cycle;Max_cycle;Signal;HPM_P1;HPM_P2
2022/01/30 00:00:31;;;;;;;1.30;1.20;;;;;;;4.50;100.00;95336.69;5045527;28;20258;-73
2022/01/30 00:03:17;;;;;;;1.00;1.00;;;;;;;4.53;100.00;95333.19;5064785;28;20744;-73
2022/01/30 00:06:03;;;;;;;1.70;1.50;;;;;;;4.53;100.00;95335.88;5067649;28;20202;-73
2022/01/30 00:08:49;;;;;;;1.53;1.13;;;;;;;4.59;100.00;95335.03;5060146;28;20194;-72
2022/01/30 00:11:38;;;;;;;1.97;1.30;;;;;;;4.52;100.00;95337.03;5049099;28;20699;-73
2022/01/30 00:14:26;;;;;;;1.70;1.40;;;;;;;4.57;100.00;95326.53;5053280;28;20194;-73
2022/01/30 00:17:21;;;;;;;1.57;1.17;;;;;;;4.54;100.00;95324.66;5060135;28;20663;-74
2022/01/30 00:20:13;;;;;;;1.37;1.20;;;;;;;4.52;100.00;95318.09;5036050;28;20697;-73
2022/01/30 00:23:10;;;;;;;2.47;1.20;;;;;;;4.54;100.00;95311.13;5045757;28;20198;-73
2022/01/30 00:25:57;;;;;;;2.57;1.23;;;;;;;4.50;100.00;95301.53;5036144;28;20202;-73
2022/01/30 00:28:43;;;;;;;1.53;1.13;;;;;;;4.54;100.00;95288.72;5054533;28;20211;-73
2022/01/30 00:31:31;;;;;;;1.57;1.10;;;;;;;4.57;100.00;95304.91;5061786;28;20238;-72
2022/01/30 00:34:17;;;;;;;1.20;1.10;;;;;;;4.51;100.00;95314.63;5062892;28;20197;-73
2022/01/30 00:37:03;;;;;;;1.50;1.40;;;;;;;4.56;100.00;95311.50;5060286;28;20204;-73
2022/01/30 00:39:49;;;;;;;1.60;1.20;;;;;;;4.47;100.00;95297.72;5039061;28;20225;-73
2022/01/30 00:42:35;;;;;;;1.57;1.33;;;;;;;4.47;100.00;95302.34;5053308;28;20201;-73
2022/01/30 00:45:21;;;;;;;2.07;1.23;;;;;;;4.49;100.00;95308.13;5042725;28;20210;-73
2022/01/30 00:48:07;;;;;;;1.23;1.07;;;;;;;4.48;100.00;95301.94;5041627;28;20201;-73
2022/01/30 00:50:53;;;;;;;1.10;1.03;;;;;;;4.44;100.00;95298.53;5043815;28;20206;-74
2022/01/30 00:53:39;;;;;;;1.00;1.00;;;;;;;4.43;100.00;95302.38;5038939;28;20217;-73
2022/01/30 00:56:25;;;;;;;1.43;1.13;;;;;;;4.40;100.00;95311.31;5038320;28;20186;-73
2022/01/30 00:59:11;;;;;;;1.37;0.90;;;;;;;4.44;100.00;95300.47;5038580;28;20218;-73
2022/01/30 01:01:57;;;;;;;0.83;0.83;;;;;;;4.45;100.00;95304.69;5070455;28;20213;-73
2022/01/30 01:04:46;;;;;;;1.17;0.90;;;;;;;4.40;100.00;95297.03;5072023;28;20571;-73
2022/01/30 01:07:34;;;;;;;1.20;0.97;;;;;;;4.44;100.00;95300.47;5065410;28;20227;-73
2022/01/30 01:25:30;;;;;;;1.10;0.77;;;;;;;4.61;100.00;95296.75;5070352;28;20197;-72
2022/01/30 01:28:16;;;;;;;0.43;0.43;;;;;;;4.55;100.00;95314.59;5057477;28;20324;-73
2022/01/30 01:31:03;;;;;;;0.40;0.40;;;;;;;4.56;100.00;95297.19;5034578;28;20209;-73
2022/01/30 01:36:45;;;;;;;0.40;0.40;;;;;;;4.64;100.00;95290.50;5051125;28;20183;-73
2022/01/30 01:39:31;;;;;;;0.40;0.40;;;;;;;4.59;100.00;95294.44;5061685;28;20232;-73
2022/01/30 01:42:17;;;;;;;0.43;0.43;;;;;;;4.59;100.00;95299.84;5043258;28;20767;-73
2022/01/30 01:45:04;;;;;;;0.50;0.50;;;;;;;4.54;100.00;95281.38;5057578;28;20190;-73
2022/01/30 01:47:50;;;;;;;0.50;0.50;;;;;;;4.58;100.00;95302.97;5050406;28;20733;-73
2022/01/30 01:50:44;;;;;;;0.60;0.53;;;;;;;4.56;100.00;95319.59;5044094;28;20300;-73
2022/01/30 01:53:32;;;;;;;0.50;0.50;;;;;;;4.54;100.00;95316.53;5051128;28;20191;-73
2022/01/30 01:56:19;;;;;;;0.50;0.50;;;;;;;4.58;100.00;95317.25;5053450;28;20600;-73
2022/01/30 01:59:13;;;;;;;0.50;0.50;;;;;;;4.57;100.00;95318.44;5045854;28;20644;-73
2022/01/30 02:02:28;;;;;;;1.23;0.40;;;;;;;4.53;100.00;95317.69;5065952;28;20233;-73
2022/01/30 02:05:14;;;;;;;0.97;0.30;;;;;;;4.55;100.00;95320.00;5062353;28;20229;-74
2022/01/30 02:26:05;;;;;;;0.40;0.40;;;;;;;4.55;100.00;95263.19;5048568;28;20209;-74
2022/01/30 02:28:53;;;;;;;0.40;0.40;;;;;;;4.47;100.00;95249.03;5053807;28;20225;-74
2022/01/30 02:31:42;;;;;;;0.40;0.40;;;;;;;4.49;100.00;95256.72;5044824;28;20234;-74
2022/01/30 02:34:29;;;;;;;1.10;0.57;;;;;;;4.46;100.00;95242.06;5043773;28;20193;-74
2022/01/30 02:37:17;;;;;;;0.33;0.33;;;;;;;4.48;100.00;95264.06;5050404;28;20193;-73
2022/01/30 02:40:07;;;;;;;1.17;0.47;;;;;;;4.47;100.00;95248.25;5054047;28;20269;-73
2022/01/30 02:42:54;;;;;;;0.93;0.37;;;;;;;4.45;100.00;95250.59;5061715;28;20277;-74
2022/01/30 02:45:48;;;;;;;0.30;0.30;;;;;;;4.48;100.00;95241.69;5041441;28;20190;-74
2022/01/30 02:48:52;;;;;;;0.30;0.30;;;;;;;4.41;100.00;95245.25;5063969;28;20186;-73
2022/01/30 02:51:47;;;;;;;0.40;0.40;;;;;;;4.42;100.00;95263.00;5053811;28;20205;-73
2022/01/30 02:54:33;;;;;;;0.37;0.37;;;;;;;4.41;100.00;95258.75;5058061;28;20190;-74
2022/01/30 02:57:19;;;;;;;0.40;0.40;;;;;;;4.47;100.00;95256.38;5055907;28;20956;-74
2022/01/30 03:00:08;;;;;;;0.50;0.50;;;;;;;4.37;100.00;95260.00;5055561;28;20252;-73
2022/01/30 03:02:54;;;;;;;0.60;0.60;;;;;;;4.38;100.00;95258.81;5046802;28;20238;-74
2022/01/30 03:05:41;;;;;;;0.40;0.40;;;;;;;4.42;100.00;95262.25;5069189;28;20670;-73
2022/01/30 03:08:26;;;;;;;0.60;0.50;;;;;;;4.48;100.00;95266.03;5038150;28;20284;-73
2022/01/30 03:11:13;;;;;;;1.00;0.50;;;;;;;4.45;100.00;95258.72;5049992;28;20225;-73
2022/01/30 03:13:59;;;;;;;0.30;0.30;;;;;;;4.48;100.00;95266.03;5023038;28;20189;-73
2022/01/30 03:16:45;;;;;;;0.43;0.43;;;;;;;4.43;100.00;95259.13;5047866;28;20197;-74
2022/01/30 03:19:31;;;;;;;0.43;0.43;;;;;;;4.42;100.00;95265.72;5039079;28;20226;-74
2022/01/30 03:22:17;;;;;;;0.40;0.40;;;;;;;4.38;100.00;95256.09;5043284;28;20229;-74
2022/01/30 03:25:04;;;;;;;0.50;0.47;;;;;;;4.37;100.00;95277.00;5051077;28;20196;-73
2022/01/30 03:28:27;;;;;;;0.63;0.60;;;;;;;4.45;100.00;95250.59;4998453;28;20200;-74
2022/01/30 03:31:22;;;;;;;0.50;0.50;;;;;;;4.40;100.00;95272.69;5033847;28;20213;-74
2022/01/30 03:34:11;;;;;;;1.83;0.50;;;;;;;4.39;100.00;95271.94;5051065;28;20678;-73
2022/01/30 03:37:04;;;;;;;0.50;0.50;;;;;;;4.34;100.00;95260.81;5048016;28;21896;-74
2022/01/30 03:39:52;;;;;;;0.60;0.60;;;;;;;4.40;100.00;95259.94;5048292;28;20667;-74
2022/01/30 03:42:38;;;;;;;0.50;0.50;;;;;;;4.41;100.00;95269.56;5053898;28;20189;-73
2022/01/30 03:45:24;;;;;;;0.80;0.70;;;;;;;4.39;100.00;95260.34;5050394;28;20194;-74
2022/01/30 03:48:13;;;;;;;0.70;0.70;;;;;;;4.35;100.00;95268.50;5054031;28;20778;-74
2022/01/30 03:51:19;;;;;;;0.63;0.63;;;;;;;4.35;100.00;95257.69;5049789;28;20214;-74
2022/01/30 03:54:05;;;;;;;1.17;0.50;;;;;;;4.36;100.00;95275.44;5070964;28;20535;-74
2022/01/30 03:56:51;;;;;;;0.93;0.70;;;;;;;4.40;100.00;95275.41;5053981;28;20186;-74
2022/01/30 03:59:41;;;;;;;0.70;0.70;;;;;;;4.35;100.00;95290.16;5047330;28;20254;-74
2022/01/30 04:02:27;;;;;;;0.70;0.70;;;;;;;4.40;100.00;95281.56;5059079;28;20287;-73
2022/01/30 04:05:13;;;;;;;0.80;0.80;;;;;;;4.39;100.00;95266.53;5078707;28;20279;-73
2022/01/30 04:08:02;;;;;;;0.93;0.87;;;;;;;4.33;100.00;95270.09;5043324;28;20206;-74
2022/01/30 04:11:11;;;;;;;1.10;1.00;;;;;;;4.33;100.00;95270.84;5085562;28;20972;-73
2022/01/30 04:14:02;;;;;;;1.50;0.83;;;;;;;4.35;100.00;95278.56;5078791;28;20268;-73
2022/01/30 04:17:24;;;;;;;0.93;0.90;;;;;;;4.41;100.00;95272.28;4999763;28;20196;-74
2022/01/30 04:20:24;;;;;;;0.73;0.73;;;;;;;4.37;100.00;95287.03;5050218;28;20222;-73
2022/01/30 04:23:29;;;;;;;1.10;1.00;;;;;;;4.36;100.00;95283.56;5079978;28;20185;-73
2022/01/30 04:26:36;;;;;;;2.03;1.10;;;;;;;4.36;100.00;95282.81;5056464;28;20193;-73
2022/01/30 04:29:46;;;;;;;1.13;1.03;;;;;;;4.40;100.00;95280.81;5054429;28;20186;-73
2022/01/30 04:32:43;;;;;;;1.10;1.00;;;;;;;4.35;100.00;95268.50;5066288;28;20194;-74
2022/01/30 04:35:33;;;;;;;1.13;1.03;;;;;;;4.39;100.00;95271.94;5057060;28;20191;-74
2022/01/30 04:38:33;;;;;;;1.00;1.00;;;;;;;4.39;100.00;95277.34;5045014;28;20255;-74
2022/01/30 05:01:20;;;;;;;1.00;1.00;;;;;;;4.37;100.00;95285.09;5049584;28;20779;-72
2022/01/30 05:07:29;;;;;;;1.40;1.10;;;;;;;4.40;100.00;95297.03;5058365;28;20198;-72
2022/01/30 05:10:21;;;;;;;1.47;1.37;;;;;;;4.37;100.00;95287.03;5062759;28;20201;-72
2022/01/30 05:13:29;;;;;;;1.93;1.40;;;;;;;4.36;100.00;95329.53;5040728;28;20567;-72
2022/01/30 05:16:34;;;;;;;1.23;1.13;;;;;;;4.42;100.00;95300.88;5036676;28;20615;-72
2022/01/30 05:19:40;;;;;;;1.60;1.10;;;;;;;4.44;100.00;95316.69;5064418;28;20238;-72
2022/01/30 05:22:49;;;;;;;2.37;1.57;;;;;;;4.39;100.00;95315.22;5065766;28;20198;-72
2022/01/30 05:25:52;;;;;;;2.00;1.60;;;;;;;4.44;100.00;95311.28;5050897;28;20198;-72
2022/01/30 05:28:39;;;;;;;1.40;1.30;;;;;;;4.41;100.00;95312.84;5049446;28;20193;-73
2022/01/30 05:31:51;;;;;;;1.37;1.27;;;;;;;4.39;100.00;95299.00;5054895;28;20218;-72
2022/01/30 05:34:56;;;;;;;1.67;1.27;;;;;;;4.39;100.00;95303.63;5058853;28;20209;-72
2022/01/30 05:37:56;;;;;;;1.40;1.30;;;;;;;4.41;100.00;95309.41;5050385;28;20194;-73
2022/01/30 05:41:00;;;;;;;1.57;1.40;;;;;;;4.38;100.00;95310.19;5067064;28;20209;-73
2022/01/30 05:44:15;;;;;;;1.33;1.23;;;;;;;4.35;100.00;95313.72;5060594;28;20197;-72
2022/01/30 05:47:23;;;;;;;1.33;1.23;;;;;;;4.39;100.00;95309.03;5054685;28;20194;-72
2022/01/30 05:50:18;;;;;;;2.17;1.17;;;;;;;4.44;100.00;95311.28;5047423;28;20200;-72
2022/01/30 05:53:23;;;;;;;1.27;0.97;;;;;;;4.39;100.00;95315.22;5087670;28;20631;-73
2022/01/30 05:56:15;;;;;;;1.60;1.20;;;;;;;4.36;100.00;95315.25;5077433;28;20954;-73
2022/01/30 05:59:02;;;;;;;1.20;1.10;;;;;;;4.36;100.00;95312.56;5038455;28;20222;-72
2022/01/30 06:01:48;;;;;;;1.30;1.20;;;;;;;4.36;100.00;95307.16;5071584;28;20244;-72
2022/01/30 06:04:39;;;;;;;1.73;1.43;;;;;;;4.38;100.00;95310.97;5056025;28;20198;-72
2022/01/30 06:07:31;;;;;;;1.47;1.07;;;;;;;4.42;100.00;95321.72;5052663;28;20197;-72
2022/01/30 06:10:17;;;;;;;1.43;1.33;;;;;;;4.42;100.00;95319.81;5052219;28;20232;-72
2022/01/30 06:13:03;;;;;;;2.47;1.50;;;;;;;4.46;100.00;95338.69;5054438;28;20634;-73
2022/01/30 06:15:49;;;;;;;1.20;1.10;;;;;;;4.44;100.00;95324.81;5045181;28;20206;-73
2022/01/30 06:18:39;;;;;;;1.13;1.03;;;;;;;4.42;100.00;95337.94;5042570;28;20225;-73
2022/01/30 06:21:43;;;;;;;2.57;1.20;;;;;;;4.47;100.00;95332.09;5069910;28;20217;-73
2022/01/30 06:24:47;;;;;;;1.33;1.10;;;;;;;4.43;100.00;95320.56;5069070;28;20683;-73
2022/01/30 06:27:46;;;;;;;2.17;1.57;;;;;;;4.48;100.00;95328.97;5052835;28;20793;-73
2022/01/30 06:30:52;;;;;;;1.30;1.20;;;;;;;4.41;100.00;95326.38;5028556;28;20221;-73
2022/01/30 06:33:58;;;;;;;1.67;1.40;;;;;;;4.46;100.00;95352.22;5071228;28;20201;-72
2022/01/30 06:36:47;;;;;;;1.07;0.97;;;;;;;4.42;100.00;95338.72;5070065;28;20200;-73
2022/01/30 06:39:59;;;;;;;1.23;1.10;;;;;;;4.41;100.00;95345.28;5052821;28;20239;-73
2022/01/30 06:43:03;;;;;;;1.37;1.17;;;;;;;4.37;100.00;95341.09;5050997;28;20186;-73
2022/01/30 06:46:10;;;;;;;0.97;0.90;;;;;;;4.33;100.00;95349.25;5053736;28;20190;-73
2022/01/30 06:49:14;;;;;;;1.43;1.20;;;;;;;4.35;100.00;95355.03;5059210;28;20204;-73
2022/01/30 06:52:21;;;;;;;1.77;1.17;;;;;;;4.38;100.00;95348.03;5053943;28;20751;-73
2022/01/30 06:55:44;;;;;;;1.47;1.30;;;;;;;4.34;100.00;95358.94;4989005;28;20196;-73
2022/01/30 06:58:51;;;;;;;1.30;0.93;;;;;;;4.41;100.00;95361.50;5047746;28;20671;-73
2022/01/30 07:02:09;;;;;;;1.37;1.00;;;;;;;4.41;100.00;95355.38;5000813;28;20272;-73
2022/01/30 07:05:13;;;;;;;1.33;1.23;;;;;;;4.43;100.00;95361.88;5066753;28;20291;-73
2022/01/30 07:08:06;;;;;;;1.23;1.13;;;;;;;4.44;100.00;95370.78;5037259;28;20586;-72
2022/01/30 07:10:52;;;;;;;1.00;0.90;;;;;;;4.42;100.00;95378.50;5050283;28;20217;-73
2022/01/30 07:13:40;;;;;;;1.07;0.90;;;;;;;4.49;100.00;95381.91;5048459;28;20205;-73
2022/01/30 07:16:26;;;;;;;1.00;0.90;;;;;;;4.41;100.00;95382.41;5050664;28;20260;-72
2022/01/30 07:19:12;;;;;;;1.30;1.10;;;;;;;4.41;100.00;95393.22;5044670;28;20198;-73
2022/01/30 07:21:58;;;;;;;1.23;1.13;;;;;;;4.39;100.00;95399.03;5057932;28;20231;-73
2022/01/30 07:24:43;;;;;;;1.77;1.00;;;;;;;4.38;100.00;95399.41;5062403;28;20216;-73
2022/01/30 07:27:29;;;;;;;0.80;0.80;;;;;;;4.45;100.00;95394.69;5066196;28;20611;-73
2022/01/30 07:30:15;;;;;;;0.80;0.80;;;;;;;4.46;100.00;95409.75;5068555;28;20216;-73
2022/01/30 07:33:05;;;;;;;0.93;0.83;;;;;;;4.44;100.00;95406.69;5051367;28;20197;-72
2022/01/30 07:35:53;;;;;;;2.20;0.93;;;;;;;4.46;100.00;95392.78;5033036;28;20198;-72
2022/01/30 07:38:39;;;;;;;0.70;0.70;;;;;;;4.45;100.00;95402.03;5061489;28;20213;-73
2022/01/30 07:41:25;;;;;;;0.93;0.90;;;;;;;4.54;100.00;95415.84;5041758;28;20230;-73
2022/01/30 07:44:11;;;;;;;0.93;0.73;;;;;;;4.52;100.00;95413.53;5035639;28;20187;-73
2022/01/30 07:46:57;;;;;;;0.90;0.90;;;;;;;4.48;100.00;95425.59;5058137;28;20209;-73
2022/01/30 07:49:46;;;;;;;0.80;0.80;;;;;;;4.48;100.00;95437.16;5054010;28;20205;-73
2022/01/30 07:52:32;;;;;;;2.47;1.03;;;;;;;4.52;100.00;95424.38;5048738;28;20202;-73
2022/01/30 07:55:19;;;;;;;0.67;0.67;;;;;;;4.60;100.00;95414.22;5046488;28;20675;-72
2022/01/30 07:58:06;;;;;;;1.40;0.90;;;;;;;4.59;100.00;95420.81;5052238;28;20197;-73
2022/01/30 08:00:52;;;;;;;3.73;0.93;;;;;;;4.68;100.00;95411.00;5055443;28;20276;-73
2022/01/30 08:03:37;;;;;;;2.63;1.10;;;;;;;4.70;100.00;95416.78;5061908;28;20290;-73
2022/01/30 08:06:23;;;;;;;2.73;1.20;;;;;;;4.70;100.00;95422.19;5065920;28;20300;-74
2022/01/30 08:09:09;;;;;;;1.43;0.90;;;;;;;4.48;100.00;95422.88;5064774;28;20224;-73
2022/01/30 08:11:55;;;;;;;0.97;0.70;;;;;;;4.23;100.00;95438.59;5065390;28;20235;-73
2022/01/30 08:14:41;;;;;;;2.33;1.13;;;;;;;3.95;100.00;95439.69;5050597;28;20202;-73
2022/01/30 08:17:28;;;;;;;0.80;0.80;;;;;;;3.95;100.00;95426.19;5055746;28;20612;-72
2022/01/30 08:20:14;;;;;;;1.07;1.07;;;;;;;4.06;100.00;95420.63;5060377;28;20327;-72
2022/01/30 08:23:01;;;;;;;1.13;1.03;;;;;;;4.17;100.00;95421.31;5062544;28;20272;-72
2022/01/30 08:25:47;;;;;;;0.90;0.90;;;;;;;4.24;100.00;95418.53;5041623;28;20206;-72
2022/01/30 08:28:32;;;;;;;1.73;1.23;;;;;;;4.20;100.00;95412.38;5065669;28;20201;-72
2022/01/30 08:31:18;;;;;;;1.47;1.37;;;;;;;4.23;100.00;95419.69;5045207;28;20966;-72
2022/01/30 08:34:04;;;;;;;2.20;0.80;;;;;;;4.25;100.00;95442.44;5054979;28;20286;-72
2022/01/30 08:36:50;;;;;;;2.30;1.20;;;;;;;4.33;100.00;95435.00;5069280;28;20254;-72
2022/01/30 08:39:36;;;;;;;1.67;1.40;;;;;;;4.33;100.00;95440.41;5069170;28;20215;-72
2022/01/30 08:42:22;;;;;;;1.03;0.93;;;;;;;4.35;100.00;95444.28;5064504;28;20360;-73
2022/01/30 08:45:09;;;;;;;2.50;1.30;;;;;;;4.40;100.00;95435.72;5053882;28;20201;-72
2022/01/30 08:47:55;;;;;;;1.37;1.27;;;;;;;4.37;100.00;95441.94;5051943;28;20733;-72
2022/01/30 08:50:40;;;;;;;2.77;0.97;;;;;;;4.42;100.00;95444.19;5052759;28;20213;-72
2022/01/30 08:53:26;;;;;;;0.90;0.80;;;;;;;4.40;100.00;95435.72;5050773;28;20197;-72
2022/01/30 08:56:12;;;;;;;3.03;0.70;;;;;;;4.51;100.00;95449.13;5053393;28;20190;-72
2022/01/30 08:58:58;;;;;;;1.40;0.83;;;;;;;4.73;100.00;95453.84;5063263;28;20198;-73
2022/01/30 09:01:44;;;;;;;1.07;1.00;;;;;;;4.68;100.00;95464.38;5062238;28;20217;-72
2022/01/30 09:04:30;;;;;;;3.50;1.00;;;;;;;4.62;100.00;95463.25;5072262;28;20186;-72
2022/01/30 09:07:16;;;;;;;3.07;1.20;;;;;;;4.78;100.00;95464.25;5069696;28;20198;-72
2022/01/30 09:10:08;;;;;;;3.60;0.90;;;;;;;4.77;100.00;95465.41;5067693;28;20198;-72
2022/01/30 09:12:53;;;;;;;2.53;0.90;;;;;;;4.77;100.00;95470.81;5068886;28;20190;-72
2022/01/30 09:15:42;;;;;;;1.50;0.90;;;;;;;4.79;100.00;95473.09;5047755;28;20843;-73
2022/01/30 09:18:29;;;;;;;1.90;0.77;;;;;;;4.80;100.00;95499.00;5054780;28;20198;-72
2022/01/30 09:21:15;;;;;;;1.93;1.20;;;;;;;4.78;100.00;95491.31;5067965;28;20707;-73
2022/01/30 09:24:01;;;;;;;2.70;0.80;;;;;;;4.75;100.00;95478.56;5048899;28;20198;-72
2022/01/30 09:26:47;;;;;;;1.87;0.90;;;;;;;4.82;100.00;95493.94;5066626;28;20213;-72
2022/01/30 09:29:34;;;;;;;1.90;1.07;;;;;;;4.85;100.00;95504.72;5053895;28;20655;-73
2022/01/30 09:32:20;;;;;;;1.70;1.00;;;;;;;4.91;100.00;95515.88;5044269;28;20229;-73
2022/01/30 09:35:07;;;;;;;1.73;0.97;;;;;;;4.97;100.00;95531.25;5072346;28;20781;-72
2022/01/30 09:37:52;;;;;;;2.43;1.10;;;;;;;4.98;100.00;95518.50;5077636;28;20189;-72
2022/01/30 09:40:39;;;;;;;4.70;1.27;;;;;;;4.99;100.00;95516.56;5061096;28;20597;-72
2022/01/30 09:43:26;;;;;;;3.70;1.30;;;;;;;4.93;100.00;95525.13;5079352;28;20668;-72
2022/01/30 09:46:15;;;;;;;2.07;0.97;;;;;;;4.89;100.00;95532.50;5071935;28;20647;-72
2022/01/30 09:49:01;;;;;;;3.07;1.30;;;;;;;4.89;100.00;95529.03;5054597;28;20198;-72
2022/01/30 09:51:47;;;;;;;2.17;1.07;;;;;;;5.10;100.00;95550.44;5050786;28;20294;-72
2022/01/30 09:54:34;;;;;;;5.83;1.20;;;;;;;5.21;100.00;95542.19;5071444;28;20193;-72
2022/01/30 09:57:20;;;;;;;4.70;1.07;;;;;;;5.15;100.00;95525.63;5062568;28;20186;-72
2022/01/30 10:00:07;;;;;;;2.77;1.23;;;;;;;5.07;100.00;95512.59;5068304;28;20210;-72
2022/01/30 10:02:53;;;;;;;2.17;1.20;;;;;;;4.95;100.00;95528.19;5065507;28;20193;-73
2022/01/30 10:06:12;;;;;;;4.70;1.50;;;;;;;5.07;100.00;95512.59;5053732;28;20206;-72
2022/01/30 10:09:00;;;;;;;5.37;1.23;;;;;;;5.21;100.00;95501.56;5081268;28;20197;-73
2022/01/30 10:11:51;;;;;;;3.00;0.93;;;;;;;5.39;100.00;95496.66;5051075;28;20237;-72
2022/01/30 10:15:06;;;;;;;1.97;1.00;;;;;;;5.55;100.00;95504.97;5063087;28;20626;-72
2022/01/30 10:17:52;;;;;;;2.60;1.17;;;;;;;5.66;100.00;95494.72;5069990;28;20681;-72
2022/01/30 10:20:39;;;;;;;2.77;1.60;;;;;;;5.85;97.58;95485.91;5063239;28;20229;-73
2022/01/30 10:23:33;;;;;;;2.30;1.10;;;;;;;5.75;96.17;95484.88;5053470;28;20190;-72
2022/01/30 10:26:30;;;;;;;4.47;1.60;;;;;;;5.69;93.61;95475.69;5064508;28;20240;-73
2022/01/30 10:29:18;;;;;;;2.60;1.13;;;;;;;5.60;92.35;95475.44;5050150;28;20213;-72
2022/01/30 10:32:06;;;;;;;2.73;1.20;;;;;;;5.55;90.85;95464.31;5065111;28;20214;-72
2022/01/30 10:35:08;;;;;;;4.50;1.00;;;;;;;5.27;90.71;95433.00;5063271;28;20274;-72
2022/01/30 10:37:54;;;;;;;9.30;1.50;;;;;;;5.21;91.25;95447.41;5067581;28;20196;-72
2022/01/30 10:40:54;;;;;;;5.13;1.40;;;;;;;5.16;86.99;95448.63;5070233;28;20281;-72
2022/01/30 10:44:04;;;;;;;4.07;1.30;;;;;;;5.23;86.12;95439.63;5070234;28;20178;-72
2022/01/30 10:46:53;;;;;;;3.30;0.93;;;;;;;5.25;85.57;95454.31;5052866;28;20190;-73
2022/01/30 10:49:44;;;;;;;6.80;1.33;;;;;;;5.39;85.69;95445.19;5048145;28;20198;-73
2022/01/30 10:52:31;;;;;;;3.53;1.47;;;;;;;5.39;86.39;95459.53;5074687;28;20213;-73
2022/01/30 10:55:18;;;;;;;5.30;1.00;;;;;;;5.31;86.25;95446.50;5090363;28;20580;-73
2022/01/30 10:58:05;;;;;;;4.97;1.40;;;;;;;5.14;83.99;95461.81;5066016;28;20205;-73
2022/01/30 11:00:55;;;;;;;3.27;1.30;;;;;;;5.13;83.81;95465.69;5057097;28;20802;-72
2022/01/30 11:03:45;;;;;;;3.70;1.10;;;;;;;4.99;83.71;95468.59;5051662;28;20198;-73
2022/01/30 11:06:37;;;;;;;2.63;1.17;;;;;;;4.89;83.76;95466.78;5049450;28;20187;-73
2022/01/30 11:09:27;;;;;;;6.30;1.67;;;;;;;4.81;82.93;95471.53;5075542;28;20397;-72
2022/01/30 11:12:15;;;;;;;5.40;1.57;;;;;;;4.77;81.36;95470.03;5054655;28;20281;-73
2022/01/30 11:15:23;;;;;;;3.10;1.00;;;;;;;4.70;81.25;95470.88;5054943;28;20668;-73
2022/01/30 11:18:12;;;;;;;6.53;1.37;;;;;;;4.85;79.94;95466.81;5034777;28;20566;-73
2022/01/30 11:20:58;;;;;;;5.57;1.50;;;;;;;5.01;79.43;95479.00;5051800;28;20222;-73
2022/01/30 11:23:44;;;;;;;2.90;0.87;;;;;;;5.25;78.54;95470.56;5069923;28;20185;-72
2022/01/30 11:26:31;;;;;;;4.60;1.27;;;;;;;5.41;76.88;95468.00;5041427;28;20207;-73
2022/01/30 11:29:20;;;;;;;4.83;1.43;;;;;;;5.40;77.21;95465.69;5063382;28;20236;-73
2022/01/30 11:32:07;;;;;;;6.33;1.57;;;;;;;5.44;77.39;95464.47;5040677;28;20313;-73
2022/01/30 11:34:54;;;;;;;3.93;1.43;;;;;;;5.62;77.54;95467.66;5058046;28;20320;-73
2022/01/30 11:37:40;;;;;;;4.43;1.43;;;;;;;5.69;77.80;95461.38;5066901;28;20194;-73
2022/01/30 11:40:26;;;;;;;3.17;1.07;;;;;;;5.60;76.94;95475.44;5059036;28;20259;-73
2022/01/30 11:43:15;;;;;;;2.37;1.10;;;;;;;5.41;76.73;95448.28;5083740;28;20192;-72
2022/01/30 11:46:15;;;;;;;3.70;1.27;;;;;;;5.45;77.47;95440.84;5075554;28;20189;-73
2022/01/30 11:49:12;;;;;;;3.63;1.03;;;;;;;5.80;76.98;95459.25;5063586;28;20208;-73
2022/01/30 11:51:59;;;;;;;4.73;1.03;;;;;;;5.85;75.76;95439.84;5049864;28;20223;-73
2022/01/30 11:54:46;;;;;;;3.93;1.33;;;;;;;6.07;74.94;95460.72;5055958;28;20259;-72
2022/01/30 11:57:32;;;;;;;1.10;0.83;;;;;;;6.41;74.69;95452.38;5035099;28;20202;-73
2022/01/30 12:00:35;;;;;;;3.53;1.33;;;;;;;6.47;73.74;95452.66;5053977;28;20721;-73
2022/01/30 12:03:25;;;;;;;4.23;1.30;;;;;;;6.26;74.84;95440.28;5069692;28;20627;-73
2022/01/30 12:06:20;;;;;;;2.90;1.37;;;;;;;6.01;75.39;95445.34;5053200;28;20236;-73
2022/01/30 12:09:26;;;;;;;3.23;1.03;;;;;;;6.41;76.41;95441.53;5069993;28;20216;-73
2022/01/30 12:12:12;;;;;;;1.70;0.97;;;;;;;6.41;74.54;95436.09;5053665;28;20212;-73
2022/01/30 12:14:58;;;;;;;2.93;1.23;;;;;;;6.51;76.24;95432.41;5059929;28;20197;-73
2022/01/30 12:17:46;;;;;;;3.00;1.30;;;;;;;6.48;76.25;95435.94;5057418;28;20194;-73
2022/01/30 12:20:57;;;;;;;4.83;0.90;;;;;;;6.52;75.63;95428.50;5063394;28;20217;-73
2022/01/30 12:23:43;;;;;;;4.33;1.23;;;;;;;6.57;77.23;95430.72;5071042;28;20193;-73
2022/01/30 12:26:49;;;;;;;5.07;1.20;;;;;;;6.67;76.69;95424.31;5055985;28;20655;-73
2022/01/30 12:29:37;;;;;;;3.43;1.40;;;;;;;6.59;76.46;95431.09;5063589;28;20185;-73
2022/01/30 12:32:22;;;;;;;4.90;1.07;;;;;;;6.44;75.67;95419.00;5066189;28;20222;-73
2022/01/30 12:35:09;;;;;;;2.27;1.03;;;;;;;6.46;75.72;95413.91;5069045;28;20197;-73
2022/01/30 12:37:55;;;;;;;1.60;1.10;;;;;;;6.64;74.91;95427.09;5045164;28;20194;-73
2022/01/30 12:40:45;;;;;;;2.27;0.90;;;;;;;6.50;75.35;95421.97;5071466;28;20229;-73
2022/01/30 12:43:31;;;;;;;3.63;1.00;;;;;;;6.58;74.82;95423.38;5070586;28;20212;-73
2022/01/30 12:46:17;;;;;;;5.27;1.17;;;;;;;6.61;74.56;95390.72;5064060;28;20305;-73
2022/01/30 12:49:12;;;;;;;3.30;1.10;;;;;;;6.74;74.71;95388.13;5074186;28;20189;-72
2022/01/30 12:52:01;;;;;;;11.03;1.50;;;;;;;6.81;72.42;95387.97;5049724;28;20324;-73
2022/01/30 12:54:50;;;;;;;4.50;1.20;;;;;;;7.04;73.71;95393.31;5046834;28;20267;-73
2022/01/30 12:57:36;;;;;;;3.13;0.90;;;;;;;7.19;71.40;95383.63;5048919;28;20232;-73
2022/01/30 13:00:23;;;;;;;5.17;1.30;;;;;;;7.08;69.29;95386.59;5040037;28;20619;-73
2022/01/30 13:03:19;;;;;;;2.53;1.10;;;;;;;7.14;70.06;95390.31;5043709;28;20198;-73
2022/01/30 13:06:05;;;;;;;4.70;1.30;;;;;;;6.71;71.86;95381.59;5052414;28;20649;-73
2022/01/30 13:08:52;;;;;;;3.33;1.50;;;;;;;6.44;71.73;95391.84;5045423;28;20281;-73
2022/01/30 13:11:38;;;;;;;2.07;0.80;;;;;;;6.34;70.76;95390.13;5055149;28;20279;-73
2022/01/30 13:14:37;;;;;;;4.87;1.30;;;;;;;6.18;72.48;95387.31;5059744;28;20204;-73
2022/01/30 13:17:29;;;;;;;3.83;1.20;;;;;;;6.14;71.90;95397.50;5064151;28;20281;-73
2022/01/30 13:20:21;;;;;;;5.27;1.50;;;;;;;6.22;73.06;95398.88;5039986;28;20221;-73
2022/01/30 13:23:07;;;;;;;4.37;1.20;;;;;;;6.03;72.38;95388.78;5063145;28;20233;-73
2022/01/30 13:25:53;;;;;;;5.40;1.20;;;;;;;6.20;72.57;95397.75;5061215;28;20201;-73
2022/01/30 13:28:39;;;;;;;3.70;1.40;;;;;;;6.33;72.19;95377.72;5069908;28;20209;-73
2022/01/30 13:31:25;;;;;;;5.67;1.37;;;;;;;6.34;72.83;95386.63;5064684;28;20588;-72
2022/01/30 13:34:13;;;;;;;6.00;1.63;;;;;;;6.31;72.56;95384.75;5073683;28;20194;-73
2022/01/30 13:37:15;;;;;;;4.43;1.30;;;;;;;6.41;72.84;95379.13;5065139;28;20209;-73
2022/01/30 13:40:17;;;;;;;8.93;2.33;;;;;;;6.26;72.39;95387.97;5036770;28;20217;-73
2022/01/30 13:43:12;;;;;;;6.03;1.30;;;;;;;6.35;70.79;95393.56;5051634;28;20635;-73
2022/01/30 13:49:05;;;;;;;7.57;1.50;;;;;;;6.37;71.28;95413.69;5046346;28;20194;-73
2022/01/30 13:52:08;;;;;;;7.47;1.43;;;;;;;6.38;69.88;95384.63;5058506;28;20221;-73
2022/01/30 13:55:00;;;;;;;5.00;1.63;;;;;;;6.34;68.83;95397.50;5046778;28;20209;-73
2022/01/30 13:57:46;;;;;;;5.43;1.57;;;;;;;6.39;68.97;95397.78;5051320;28;20236;-72
2022/01/30 14:00:36;;;;;;;3.83;1.33;;;;;;;6.46;68.17;95403.06;5047025;28;20253;-72
2022/01/30 14:03:27;;;;;;;4.53;1.33;;;;;;;6.49;68.14;95407.66;5057485;28;20610;-73
2022/01/30 14:06:22;;;;;;;2.97;1.20;;;;;;;6.30;68.94;95416.53;5057725;28;20210;-73
2022/01/30 14:09:10;;;;;;;6.63;1.83;;;;;;;6.17;67.58;95415.63;5056703;28;20197;-73
2022/01/30 14:12:02;;;;;;;3.67;1.40;;;;;;;6.06;67.68;95410.41;5050633;28;20345;-73
2022/01/30 14:15:03;;;;;;;6.50;1.60;;;;;;;5.95;67.91;95414.50;5062586;28;20205;-73
2022/01/30 14:18:16;;;;;;;4.77;1.17;;;;;;;5.81;69.34;95412.00;5059590;28;20256;-73
2022/01/30 14:21:14;;;;;;;2.00;1.00;;;;;;;5.74;67.99;95410.19;5059540;28;20263;-73
2022/01/30 14:24:13;;;;;;;7.53;1.57;;;;;;;5.67;69.32;95414.94;5091527;28;20711;-73
2022/01/30 14:27:07;;;;;;;4.63;1.27;;;;;;;5.73;68.68;95399.75;5080657;28;20577;-73
2022/01/30 14:29:56;;;;;;;3.53;1.40;;;;;;;5.80;68.63;95403.09;5068016;28;20193;-72
2022/01/30 14:32:43;;;;;;;4.87;1.60;;;;;;;5.81;69.82;95387.59;5063845;28;20186;-73